sensor_id;sensor_type;location;lat;lon;timestamp;P1;durP1;ratioP1;P2;durP2;ratioP2
21258;SDS011;10787;53.364;-1.480;2024-01-06T00:02:32;7.13;;;4.93;;
21258;SDS011;10787;53.364;-1.480;2024-01-06T00:05:16;7.23;;;4.83;;
21258;SDS011;10787;53.364;-1.480;2024-01-06T00:08:00;6.73;;;4.70;;
21258;SDS011;10787;53.364;-1.480;2024-01-06T00:10:44;6.37;;;4.50;;
21258;SDS011;10787;53.364;-1.480;2024-01-06T00:13:29;6.50;;;4.23;;
21258;SDS011;10787;53.364;-1.480;2024-01-06T00:16:16;6.47;;;4.40;;
21258;SDS011;10787;53.364;-1.480;2024-01-06T00:19:01;6.43;;;4.30;;
21258;SDS011;10787;53.364;-1.480;2024-01-06T00:21:46;6.80;;;4.87;;
21258;SDS011;10787;53.364;-1.480;2024-01-06T00:24:30;7.67;;;4.87;;
21258;SDS011;10787;53.364;-1.480;2024-01-06T00:27:15;6.37;;;4.47;;
21258;SDS011;10787;53.364;-1.480;2024-01-06T00:30:00;6.70;;;4.57;;
21258;SDS011;10787;53.364;-1.480;2024-01-06T00:32:44;6.20;;;4.50;;
21258;SDS011;10787;53.364;-1.480;2024-01-06T00:35:28;6.20;;;4.33;;
21258;SDS011;10787;53.364;-1.480;2024-01-06T00:38:12;7.00;;;4.40;;
21258;SDS011;10787;53.364;-1.480;2024-01-06T00:40:56;5.57;;;4.10;;
21258;SDS011;10787;53.364;-1.480;2024-01-06T00:43:40;5.90;;;4.00;;
21258;SDS011;10787;53.364;-1.480;2024-01-06T00:46:25;5.47;;;3.90;;
21258;SDS011;10787;53.364;-1.480;2024-01-06T00:49:09;5.97;;;4.23;;
21258;SDS011;10787;53.364;-1.480;2024-01-06T00:51:53;7.57;;;3.93;;
21258;SDS011;10787;53.364;-1.480;2024-01-06T00:54:37;5.70;;;3.70;;
21258;SDS011;10787;53.364;-1.480;2024-01-06T00:57:22;5.33;;;3.90;;
21258;SDS011;10787;53.364;-1.480;2024-01-06T01:00:07;5.37;;;3.43;;
21258;SDS011;10787;53.364;-1.480;2024-01-06T01:02:52;4.60;;;3.37;;
21258;SDS011;10787;53.364;-1.480;2024-01-06T01:05:36;4.87;;;3.47;;
21258;SDS011;10787;53.364;-1.480;2024-01-06T01:08:20;4.63;;;3.30;;
21258;SDS011;10787;53.364;-1.480;2024-01-06T01:11:05;4.30;;;3.00;;
21258;SDS011;10787;53.364;-1.480;2024-01-06T01:13:49;4.03;;;2.67;;
21258;SDS011;10787;53.364;-1.480;2024-01-06T01:16:33;3.53;;;2.73;;
21258;SDS011;10787;53.364;-1.480;2024-01-06T01:19:17;5.10;;;3.20;;
21258;SDS011;10787;53.364;-1.480;2024-01-06T01:22:01;3.70;;;2.80;;
21258;SDS011;10787;53.364;-1.480;2024-01-06T01:24:45;3.67;;;2.63;;
21258;SDS011;10787;53.364;-1.480;2024-01-06T01:27:29;4.00;;;2.60;;
21258;SDS011;10787;53.364;-1.480;2024-01-06T01:30:15;4.37;;;2.80;;
21258;SDS011;10787;53.364;-1.480;2024-01-06T01:32:59;4.30;;;2.60;;
21258;SDS011;10787;53.364;-1.480;2024-01-06T01:35:43;3.03;;;2.50;;
21258;SDS011;10787;53.364;-1.480;2024-01-06T01:38:27;4.13;;;2.63;;
21258;SDS011;10787;53.364;-1.480;2024-01-06T01:41:12;4.50;;;2.80;;
21258;SDS011;10787;53.364;-1.480;2024-01-06T01:43:56;4.07;;;2.83;;
21258;SDS011;10787;53.364;-1.480;2024-01-06T01:46:43;3.43;;;2.63;;
21258;SDS011;10787;53.364;-1.480;2024-01-06T01:49:27;4.93;;;2.90;;
21258;SDS011;10787;53.364;-1.480;2024-01-06T01:52:11;5.03;;;2.77;;
21258;SDS011;10787;53.364;-1.480;2024-01-06T01:54:57;5.30;;;3.00;;
21258;SDS011;10787;53.364;-1.480;2024-01-06T01:57:42;4.97;;;3.20;;
21258;SDS011;10787;53.364;-1.480;2024-01-06T02:00:28;6.27;;;3.30;;
21258;SDS011;10787;53.364;-1.480;2024-01-06T02:03:13;4.90;;;3.20;;
21258;SDS011;10787;53.364;-1.480;2024-01-06T02:05:57;3.93;;;2.80;;
21258;SDS011;10787;53.364;-1.480;2024-01-06T02:08:41;4.00;;;2.83;;
21258;SDS011;10787;53.364;-1.480;2024-01-06T02:11:26;4.43;;;2.97;;
21258;SDS011;10787;53.364;-1.480;2024-01-06T02:14:10;5.87;;;3.20;;
21258;SDS011;10787;53.364;-1.480;2024-01-06T02:16:54;5.80;;;3.10;;
21258;SDS011;10787;53.364;-1.480;2024-01-06T02:19:38;3.97;;;2.70;;
21258;SDS011;10787;53.364;-1.480;2024-01-06T02:22:22;5.10;;;3.10;;
21258;SDS011;10787;53.364;-1.480;2024-01-06T02:25:07;3.87;;;2.87;;
21258;SDS011;10787;53.364;-1.480;2024-01-06T02:27:56;3.70;;;2.70;;
21258;SDS011;10787;53.364;-1.480;2024-01-06T02:30:40;4.40;;;2.80;;
21258;SDS011;10787;53.364;-1.480;2024-01-06T02:33:24;3.87;;;2.70;;
21258;SDS011;10787;53.364;-1.480;2024-01-06T02:36:07;4.20;;;2.73;;
21258;SDS011;10787;53.364;-1.480;2024-01-06T02:38:51;3.77;;;2.67;;
21258;SDS011;10787;53.364;-1.480;2024-01-06T02:41:35;3.90;;;2.90;;
21258;SDS011;10787;53.364;-1.480;2024-01-06T02:44:20;4.30;;;2.97;;
21258;SDS011;10787;53.364;-1.480;2024-01-06T02:47:04;4.27;;;3.10;;
21258;SDS011;10787;53.364;-1.480;2024-01-06T02:49:49;4.13;;;2.93;;
21258;SDS011;10787;53.364;-1.480;2024-01-06T02:52:33;4.27;;;2.93;;
21258;SDS011;10787;53.364;-1.480;2024-01-06T02:55:17;4.73;;;3.00;;
21258;SDS011;10787;53.364;-1.480;2024-01-06T02:58:01;3.97;;;2.73;;
21258;SDS011;10787;53.364;-1.480;2024-01-06T03:00:46;6.90;;;2.80;;
21258;SDS011;10787;53.364;-1.480;2024-01-06T03:03:31;4.17;;;2.70;;
21258;SDS011;10787;53.364;-1.480;2024-01-06T03:06:15;4.70;;;2.90;;
21258;SDS011;10787;53.364;-1.480;2024-01-06T03:08:59;4.20;;;2.80;;
21258;SDS011;10787;53.364;-1.480;2024-01-06T03:11:43;4.10;;;2.70;;
21258;SDS011;10787;53.364;-1.480;2024-01-06T03:14:27;4.23;;;2.80;;
21258;SDS011;10787;53.364;-1.480;2024-01-06T03:17:11;5.00;;;2.73;;
21258;SDS011;10787;53.364;-1.480;2024-01-06T03:19:56;4.00;;;2.40;;
21258;SDS011;10787;53.364;-1.480;2024-01-06T03:22:41;3.87;;;2.30;;
21258;SDS011;10787;53.364;-1.480;2024-01-06T03:25:24;4.00;;;2.40;;
21258;SDS011;10787;53.364;-1.480;2024-01-06T03:28:09;3.00;;;2.10;;
21258;SDS011;10787;53.364;-1.480;2024-01-06T03:30:53;5.57;;;2.33;;
21258;SDS011;10787;53.364;-1.480;2024-01-06T03:33:37;3.63;;;2.20;;
21258;SDS011;10787;53.364;-1.480;2024-01-06T03:36:21;3.27;;;2.03;;
21258;SDS011;10787;53.364;-1.480;2024-01-06T03:39:06;3.03;;;2.20;;
21258;SDS011;10787;53.364;-1.480;2024-01-06T03:41:51;3.77;;;2.40;;
21258;SDS011;10787;53.364;-1.480;2024-01-06T03:44:35;3.20;;;2.20;;
21258;SDS011;10787;53.364;-1.480;2024-01-06T03:47:19;6.60;;;2.27;;
21258;SDS011;10787;53.364;-1.480;2024-01-06T03:50:04;3.53;;;2.00;;
21258;SDS011;10787;53.364;-1.480;2024-01-06T03:52:49;3.80;;;1.90;;
21258;SDS011;10787;53.364;-1.480;2024-01-06T03:55:33;4.07;;;2.10;;
21258;SDS011;10787;53.364;-1.480;2024-01-06T03:58:17;2.97;;;1.70;;
21258;SDS011;10787;53.364;-1.480;2024-01-06T04:01:01;3.30;;;1.90;;
21258;SDS011;10787;53.364;-1.480;2024-01-06T04:03:46;4.30;;;1.87;;
21258;SDS011;10787;53.364;-1.480;2024-01-06T04:06:30;3.53;;;1.70;;
21258;SDS011;10787;53.364;-1.480;2024-01-06T04:09:18;3.27;;;1.77;;
21258;SDS011;10787;53.364;-1.480;2024-01-06T04:12:02;2.87;;;1.57;;
21258;SDS011;10787;53.364;-1.480;2024-01-06T04:14:46;3.80;;;1.70;;
21258;SDS011;10787;53.364;-1.480;2024-01-06T04:17:31;3.07;;;1.80;;
21258;SDS011;10787;53.364;-1.480;2024-01-06T04:20:15;3.20;;;1.50;;
21258;SDS011;10787;53.364;-1.480;2024-01-06T04:22:59;3.03;;;1.57;;
21258;SDS011;10787;53.364;-1.480;2024-01-06T04:25:43;4.57;;;1.60;;
21258;SDS011;10787;53.364;-1.480;2024-01-06T04:28:27;1.73;;;1.30;;
21258;SDS011;10787;53.364;-1.480;2024-01-06T04:31:11;4.27;;;1.37;;
21258;SDS011;10787;53.364;-1.480;2024-01-06T04:33:55;3.17;;;1.57;;
21258;SDS011;10787;53.364;-1.480;2024-01-06T04:36:40;5.00;;;1.70;;
21258;SDS011;10787;53.364;-1.480;2024-01-06T04:39:24;2.70;;;1.50;;
21258;SDS011;10787;53.364;-1.480;2024-01-06T04:42:09;3.10;;;1.57;;
21258;SDS011;10787;53.364;-1.480;2024-01-06T04:44:53;2.90;;;1.60;;
21258;SDS011;10787;53.364;-1.480;2024-01-06T04:47:37;7.03;;;1.80;;
21258;SDS011;10787;53.364;-1.480;2024-01-06T04:50:21;4.47;;;1.60;;
21258;SDS011;10787;53.364;-1.480;2024-01-06T04:53:05;5.40;;;1.70;;
21258;SDS011;10787;53.364;-1.480;2024-01-06T04:55:50;3.53;;;1.43;;
21258;SDS011;10787;53.364;-1.480;2024-01-06T04:58:34;5.63;;;1.73;;
21258;SDS011;10787;53.364;-1.480;2024-01-06T05:01:18;3.43;;;1.73;;
21258;SDS011;10787;53.364;-1.480;2024-01-06T05:04:03;6.53;;;1.67;;
21258;SDS011;10787;53.364;-1.480;2024-01-06T05:06:47;6.70;;;1.70;;
21258;SDS011;10787;53.364;-1.480;2024-01-06T05:09:33;3.10;;;1.60;;
21258;SDS011;10787;53.364;-1.480;2024-01-06T05:12:17;3.27;;;1.63;;
21258;SDS011;10787;53.364;-1.480;2024-01-06T05:15:02;3.90;;;1.90;;
21258;SDS011;10787;53.364;-1.480;2024-01-06T05:17:47;4.20;;;1.83;;
21258;SDS011;10787;53.364;-1.480;2024-01-06T05:20:32;3.77;;;1.70;;
21258;SDS011;10787;53.364;-1.480;2024-01-06T05:23:16;4.77;;;1.60;;
21258;SDS011;10787;53.364;-1.480;2024-01-06T05:26:01;3.23;;;1.90;;
21258;SDS011;10787;53.364;-1.480;2024-01-06T05:28:46;4.37;;;2.10;;
21258;SDS011;10787;53.364;-1.480;2024-01-06T05:31:30;4.80;;;2.10;;
21258;SDS011;10787;53.364;-1.480;2024-01-06T05:34:15;5.43;;;1.90;;
21258;SDS011;10787;53.364;-1.480;2024-01-06T05:36:59;5.53;;;2.07;;
21258;SDS011;10787;53.364;-1.480;2024-01-06T05:39:43;7.20;;;2.00;;
21258;SDS011;10787;53.364;-1.480;2024-01-06T05:42:27;4.77;;;2.23;;
21258;SDS011;10787;53.364;-1.480;2024-01-06T05:45:11;4.60;;;2.20;;
21258;SDS011;10787;53.364;-1.480;2024-01-06T05:47:56;4.67;;;2.40;;
21258;SDS011;10787;53.364;-1.480;2024-01-06T05:50:40;5.20;;;2.17;;
21258;SDS011;10787;53.364;-1.480;2024-01-06T05:53:25;5.60;;;2.50;;
21258;SDS011;10787;53.364;-1.480;2024-01-06T05:56:10;6.10;;;2.40;;
21258;SDS011;10787;53.364;-1.480;2024-01-06T05:58:55;7.70;;;2.53;;
21258;SDS011;10787;53.364;-1.480;2024-01-06T06:01:39;5.67;;;2.70;;
21258;SDS011;10787;53.364;-1.480;2024-01-06T06:04:24;4.60;;;2.80;;
21258;SDS011;10787;53.364;-1.480;2024-01-06T06:07:08;6.47;;;2.40;;
21258;SDS011;10787;53.364;-1.480;2024-01-06T06:09:52;6.83;;;2.40;;
21258;SDS011;10787;53.364;-1.480;2024-01-06T06:12:37;3.83;;;2.10;;
21258;SDS011;10787;53.364;-1.480;2024-01-06T06:15:22;9.23;;;2.50;;
21258;SDS011;10787;53.364;-1.480;2024-01-06T06:18:06;5.83;;;2.00;;
21258;SDS011;10787;53.364;-1.480;2024-01-06T06:20:50;3.67;;;2.00;;
21258;SDS011;10787;53.364;-1.480;2024-01-06T06:23:34;4.53;;;2.23;;
21258;SDS011;10787;53.364;-1.480;2024-01-06T06:26:19;5.80;;;2.30;;
21258;SDS011;10787;53.364;-1.480;2024-01-06T06:29:03;5.33;;;2.30;;
21258;SDS011;10787;53.364;-1.480;2024-01-06T06:31:47;5.53;;;2.70;;
21258;SDS011;10787;53.364;-1.480;2024-01-06T06:34:32;4.43;;;2.50;;
21258;SDS011;10787;53.364;-1.480;2024-01-06T06:37:16;7.93;;;3.20;;
21258;SDS011;10787;53.364;-1.480;2024-01-06T06:40:00;7.40;;;2.90;;
21258;SDS011;10787;53.364;-1.480;2024-01-06T06:42:45;5.90;;;3.00;;
21258;SDS011;10787;53.364;-1.480;2024-01-06T06:45:29;9.87;;;2.80;;
21258;SDS011;10787;53.364;-1.480;2024-01-06T06:48:13;5.93;;;3.00;;
21258;SDS011;10787;53.364;-1.480;2024-01-06T06:50:58;6.50;;;3.00;;
21258;SDS011;10787;53.364;-1.480;2024-01-06T06:53:42;4.80;;;2.80;;
21258;SDS011;10787;53.364;-1.480;2024-01-06T06:56:27;8.43;;;3.13;;
21258;SDS011;10787;53.364;-1.480;2024-01-06T06:59:11;6.53;;;3.43;;
21258;SDS011;10787;53.364;-1.480;2024-01-06T07:01:56;8.23;;;4.23;;
21258;SDS011;10787;53.364;-1.480;2024-01-06T07:04:40;8.00;;;4.07;;
21258;SDS011;10787;53.364;-1.480;2024-01-06T07:07:24;7.53;;;3.60;;
21258;SDS011;10787;53.364;-1.480;2024-01-06T07:10:09;6.73;;;3.40;;
21258;SDS011;10787;53.364;-1.480;2024-01-06T07:12:53;7.70;;;3.83;;
21258;SDS011;10787;53.364;-1.480;2024-01-06T07:15:37;7.23;;;3.50;;
21258;SDS011;10787;53.364;-1.480;2024-01-06T07:18:21;6.60;;;3.40;;
21258;SDS011;10787;53.364;-1.480;2024-01-06T07:21:07;6.80;;;3.40;;
21258;SDS011;10787;53.364;-1.480;2024-01-06T07:23:51;8.10;;;4.83;;
21258;SDS011;10787;53.364;-1.480;2024-01-06T07:26:35;9.90;;;5.53;;
21258;SDS011;10787;53.364;-1.480;2024-01-06T07:29:20;9.40;;;5.23;;
21258;SDS011;10787;53.364;-1.480;2024-01-06T07:32:04;10.67;;;5.20;;
21258;SDS011;10787;53.364;-1.480;2024-01-06T07:34:49;9.43;;;4.80;;
21258;SDS011;10787;53.364;-1.480;2024-01-06T07:37:34;11.60;;;5.60;;
21258;SDS011;10787;53.364;-1.480;2024-01-06T07:40:18;10.77;;;5.40;;
21258;SDS011;10787;53.364;-1.480;2024-01-06T07:43:03;12.17;;;5.43;;
21258;SDS011;10787;53.364;-1.480;2024-01-06T07:45:47;11.07;;;4.57;;
21258;SDS011;10787;53.364;-1.480;2024-01-06T07:48:32;9.97;;;4.90;;
21258;SDS011;10787;53.364;-1.480;2024-01-06T07:51:17;8.90;;;3.67;;
21258;SDS011;10787;53.364;-1.480;2024-01-06T07:54:01;8.03;;;2.20;;
21258;SDS011;10787;53.364;-1.480;2024-01-06T07:56:46;6.87;;;2.00;;
21258;SDS011;10787;53.364;-1.480;2024-01-06T07:59:30;8.87;;;2.30;;
21258;SDS011;10787;53.364;-1.480;2024-01-06T08:02:15;7.00;;;1.90;;
21258;SDS011;10787;53.364;-1.480;2024-01-06T08:04:59;7.90;;;2.17;;
21258;SDS011;10787;53.364;-1.480;2024-01-06T08:07:43;7.73;;;1.90;;
21258;SDS011;10787;53.364;-1.480;2024-01-06T08:10:28;6.07;;;2.03;;
21258;SDS011;10787;53.364;-1.480;2024-01-06T08:13:12;6.97;;;2.20;;
21258;SDS011;10787;53.364;-1.480;2024-01-06T08:15:57;7.50;;;2.30;;
21258;SDS011;10787;53.364;-1.480;2024-01-06T08:18:42;8.27;;;3.10;;
21258;SDS011;10787;53.364;-1.480;2024-01-06T08:21:26;6.27;;;2.53;;
21258;SDS011;10787;53.364;-1.480;2024-01-06T08:24:11;9.87;;;2.60;;
21258;SDS011;10787;53.364;-1.480;2024-01-06T08:26:55;4.67;;;2.27;;
21258;SDS011;10787;53.364;-1.480;2024-01-06T08:29:40;6.63;;;2.17;;
21258;SDS011;10787;53.364;-1.480;2024-01-06T08:32:24;11.47;;;4.60;;
21258;SDS011;10787;53.364;-1.480;2024-01-06T08:35:09;9.10;;;5.10;;
21258;SDS011;10787;53.364;-1.480;2024-01-06T08:37:53;11.33;;;5.17;;
21258;SDS011;10787;53.364;-1.480;2024-01-06T08:40:38;8.67;;;5.10;;
21258;SDS011;10787;53.364;-1.480;2024-01-06T08:43:22;9.73;;;5.60;;
21258;SDS011;10787;53.364;-1.480;2024-01-06T08:46:07;15.63;;;6.77;;
21258;SDS011;10787;53.364;-1.480;2024-01-06T08:48:51;13.30;;;6.60;;
21258;SDS011;10787;53.364;-1.480;2024-01-06T08:51:35;15.13;;;6.73;;
21258;SDS011;10787;53.364;-1.480;2024-01-06T08:54:19;13.47;;;6.30;;
21258;SDS011;10787;53.364;-1.480;2024-01-06T08:57:03;19.13;;;6.13;;
21258;SDS011;10787;53.364;-1.480;2024-01-06T08:59:48;14.40;;;7.20;;
21258;SDS011;10787;53.364;-1.480;2024-01-06T09:02:32;13.67;;;6.60;;
21258;SDS011;10787;53.364;-1.480;2024-01-06T09:05:16;11.03;;;6.07;;
21258;SDS011;10787;53.364;-1.480;2024-01-06T09:08:00;13.43;;;4.47;;
21258;SDS011;10787;53.364;-1.480;2024-01-06T09:10:44;8.93;;;3.10;;
21258;SDS011;10787;53.364;-1.480;2024-01-06T09:13:29;13.47;;;5.30;;
21258;SDS011;10787;53.364;-1.480;2024-01-06T09:16:13;7.87;;;2.97;;
21258;SDS011;10787;53.364;-1.480;2024-01-06T09:18:57;9.27;;;3.63;;
21258;SDS011;10787;53.364;-1.480;2024-01-06T09:21:41;6.40;;;2.50;;
21258;SDS011;10787;53.364;-1.480;2024-01-06T09:24:25;13.67;;;6.83;;
21258;SDS011;10787;53.364;-1.480;2024-01-06T09:27:09;17.60;;;7.53;;
21258;SDS011;10787;53.364;-1.480;2024-01-06T09:29:53;18.67;;;8.40;;
21258;SDS011;10787;53.364;-1.480;2024-01-06T09:32:37;14.60;;;5.97;;
21258;SDS011;10787;53.364;-1.480;2024-01-06T09:35:21;6.27;;;2.97;;
21258;SDS011;10787;53.364;-1.480;2024-01-06T09:38:06;9.00;;;3.70;;
21258;SDS011;10787;53.364;-1.480;2024-01-06T09:40:50;15.13;;;7.20;;
21258;SDS011;10787;53.364;-1.480;2024-01-06T09:43:35;16.60;;;7.80;;
21258;SDS011;10787;53.364;-1.480;2024-01-06T09:46:24;15.53;;;7.63;;
21258;SDS011;10787;53.364;-1.480;2024-01-06T09:49:10;13.40;;;7.50;;
21258;SDS011;10787;53.364;-1.480;2024-01-06T09:51:55;14.47;;;7.53;;
21258;SDS011;10787;53.364;-1.480;2024-01-06T09:54:51;17.10;;;7.63;;
21258;SDS011;10787;53.364;-1.480;2024-01-06T09:57:37;16.67;;;7.10;;
21258;SDS011;10787;53.364;-1.480;2024-01-06T10:00:21;19.17;;;9.50;;
21258;SDS011;10787;53.364;-1.480;2024-01-06T10:03:06;24.87;;;13.80;;
21258;SDS011;10787;53.364;-1.480;2024-01-06T10:05:51;21.40;;;12.67;;
21258;SDS011;10787;53.364;-1.480;2024-01-06T10:08:36;15.23;;;7.00;;
21258;SDS011;10787;53.364;-1.480;2024-01-06T10:11:24;8.97;;;4.50;;
21258;SDS011;10787;53.364;-1.480;2024-01-06T10:14:08;6.70;;;2.30;;
21258;SDS011;10787;53.364;-1.480;2024-01-06T10:16:52;6.50;;;2.17;;
21258;SDS011;10787;53.364;-1.480;2024-01-06T10:19:37;6.43;;;2.43;;
21258;SDS011;10787;53.364;-1.480;2024-01-06T10:22:21;11.17;;;5.17;;
21258;SDS011;10787;53.364;-1.480;2024-01-06T10:25:06;11.77;;;5.03;;
21258;SDS011;10787;53.364;-1.480;2024-01-06T10:27:52;10.17;;;4.90;;
21258;SDS011;10787;53.364;-1.480;2024-01-06T10:30:38;9.47;;;4.80;;
21258;SDS011;10787;53.364;-1.480;2024-01-06T10:33:22;8.30;;;2.13;;
21258;SDS011;10787;53.364;-1.480;2024-01-06T10:36:07;7.57;;;1.93;;
21258;SDS011;10787;53.364;-1.480;2024-01-06T10:38:52;4.63;;;1.63;;
21258;SDS011;10787;53.364;-1.480;2024-01-06T10:41:37;6.77;;;1.53;;
21258;SDS011;10787;53.364;-1.480;2024-01-06T10:44:25;5.27;;;1.47;;
21258;SDS011;10787;53.364;-1.480;2024-01-06T10:47:12;5.37;;;1.57;;
21258;SDS011;10787;53.364;-1.480;2024-01-06T10:50:00;6.20;;;1.33;;
21258;SDS011;10787;53.364;-1.480;2024-01-06T10:52:44;5.83;;;1.23;;
21258;SDS011;10787;53.364;-1.480;2024-01-06T10:55:30;4.87;;;1.53;;
21258;SDS011;10787;53.364;-1.480;2024-01-06T10:58:16;4.67;;;1.57;;
21258;SDS011;10787;53.364;-1.480;2024-01-06T11:01:01;5.70;;;1.40;;
21258;SDS011;10787;53.364;-1.480;2024-01-06T11:03:46;7.67;;;1.37;;
21258;SDS011;10787;53.364;-1.480;2024-01-06T11:06:33;7.97;;;1.40;;
21258;SDS011;10787;53.364;-1.480;2024-01-06T11:09:24;3.77;;;1.23;;
21258;SDS011;10787;53.364;-1.480;2024-01-06T11:12:14;7.77;;;1.67;;
21258;SDS011;10787;53.364;-1.480;2024-01-06T11:15:01;5.13;;;1.33;;
21258;SDS011;10787;53.364;-1.480;2024-01-06T11:17:56;3.10;;;1.50;;
21258;SDS011;10787;53.364;-1.480;2024-01-06T11:21:04;4.60;;;1.40;;
21258;SDS011;10787;53.364;-1.480;2024-01-06T11:24:19;6.13;;;1.83;;
21258;SDS011;10787;53.364;-1.480;2024-01-06T11:27:17;9.60;;;2.20;;
21258;SDS011;10787;53.364;-1.480;2024-01-06T11:30:06;6.40;;;2.00;;
21258;SDS011;10787;53.364;-1.480;2024-01-06T11:32:52;8.23;;;1.73;;
21258;SDS011;10787;53.364;-1.480;2024-01-06T11:35:43;3.57;;;1.40;;
21258;SDS011;10787;53.364;-1.480;2024-01-06T11:38:37;4.67;;;1.70;;
21258;SDS011;10787;53.364;-1.480;2024-01-06T11:44:39;5.80;;;1.47;;
21258;SDS011;10787;53.364;-1.480;2024-01-06T11:47:26;5.63;;;1.60;;
21258;SDS011;10787;53.364;-1.480;2024-01-06T11:50:14;4.53;;;1.50;;
21258;SDS011;10787;53.364;-1.480;2024-01-06T11:52:59;3.33;;;1.23;;
21258;SDS011;10787;53.364;-1.480;2024-01-06T11:55:48;5.87;;;2.30;;
21258;SDS011;10787;53.364;-1.480;2024-01-06T11:58:32;5.10;;;2.05;;
21258;SDS011;10787;53.364;-1.480;2024-01-06T12:01:20;4.43;;;1.75;;
21258;SDS011;10787;53.364;-1.480;2024-01-06T12:04:06;3.42;;;1.63;;
21258;SDS011;10787;53.364;-1.480;2024-01-06T12:06:51;6.40;;;1.75;;
21258;SDS011;10787;53.364;-1.480;2024-01-06T12:09:35;6.10;;;1.70;;
21258;SDS011;10787;53.364;-1.480;2024-01-06T12:12:19;3.60;;;1.50;;
21258;SDS011;10787;53.364;-1.480;2024-01-06T12:15:04;3.47;;;1.40;;
21258;SDS011;10787;53.364;-1.480;2024-01-06T12:17:49;3.72;;;1.30;;
21258;SDS011;10787;53.364;-1.480;2024-01-06T12:20:33;3.47;;;1.55;;
21258;SDS011;10787;53.364;-1.480;2024-01-06T12:23:27;4.75;;;1.52;;
21258;SDS011;10787;53.364;-1.480;2024-01-06T12:26:12;3.47;;;1.60;;
21258;SDS011;10787;53.364;-1.480;2024-01-06T12:28:56;3.85;;;1.60;;
21258;SDS011;10787;53.364;-1.480;2024-01-06T12:31:42;4.38;;;1.60;;
21258;SDS011;10787;53.364;-1.480;2024-01-06T12:34:27;4.38;;;1.80;;
21258;SDS011;10787;53.364;-1.480;2024-01-06T12:37:13;4.35;;;1.42;;
21258;SDS011;10787;53.364;-1.480;2024-01-06T12:39:57;3.45;;;1.83;;
21258;SDS011;10787;53.364;-1.480;2024-01-06T12:42:41;3.83;;;1.55;;
21258;SDS011;10787;53.364;-1.480;2024-01-06T12:45:26;3.40;;;1.77;;
21258;SDS011;10787;53.364;-1.480;2024-01-06T12:48:11;5.40;;;2.10;;
21258;SDS011;10787;53.364;-1.480;2024-01-06T12:50:55;4.45;;;1.58;;
21258;SDS011;10787;53.364;-1.480;2024-01-06T12:53:40;3.65;;;1.80;;
21258;SDS011;10787;53.364;-1.480;2024-01-06T12:56:24;5.22;;;1.70;;
21258;SDS011;10787;53.364;-1.480;2024-01-06T12:59:08;6.60;;;1.70;;
21258;SDS011;10787;53.364;-1.480;2024-01-06T13:01:53;4.15;;;1.65;;
21258;SDS011;10787;53.364;-1.480;2024-01-06T13:04:37;3.70;;;1.55;;
21258;SDS011;10787;53.364;-1.480;2024-01-06T13:07:21;5.13;;;1.40;;
21258;SDS011;10787;53.364;-1.480;2024-01-06T13:10:06;6.90;;;1.60;;
21258;SDS011;10787;53.364;-1.480;2024-01-06T13:12:51;5.10;;;1.70;;
21258;SDS011;10787;53.364;-1.480;2024-01-06T13:15:35;4.43;;;1.70;;
21258;SDS011;10787;53.364;-1.480;2024-01-06T13:18:19;3.08;;;1.73;;
21258;SDS011;10787;53.364;-1.480;2024-01-06T13:21:03;5.50;;;1.95;;
21258;SDS011;10787;53.364;-1.480;2024-01-06T13:23:48;6.15;;;2.40;;
21258;SDS011;10787;53.364;-1.480;2024-01-06T13:26:32;5.50;;;2.00;;
21258;SDS011;10787;53.364;-1.480;2024-01-06T13:29:17;4.18;;;1.50;;
21258;SDS011;10787;53.364;-1.480;2024-01-06T13:32:02;4.22;;;1.60;;
21258;SDS011;10787;53.364;-1.480;2024-01-06T13:34:47;6.50;;;2.00;;
21258;SDS011;10787;53.364;-1.480;2024-01-06T13:37:32;4.22;;;1.65;;
21258;SDS011;10787;53.364;-1.480;2024-01-06T13:40:16;3.88;;;2.10;;
21258;SDS011;10787;53.364;-1.480;2024-01-06T13:43:04;6.70;;;3.50;;
21258;SDS011;10787;53.364;-1.480;2024-01-06T13:45:52;8.63;;;2.58;;
21258;SDS011;10787;53.364;-1.480;2024-01-06T13:48:37;5.38;;;2.67;;
21258;SDS011;10787;53.364;-1.480;2024-01-06T13:51:21;5.57;;;2.83;;
21258;SDS011;10787;53.364;-1.480;2024-01-06T13:54:07;6.40;;;2.38;;
21258;SDS011;10787;53.364;-1.480;2024-01-06T13:56:52;7.65;;;3.25;;
21258;SDS011;10787;53.364;-1.480;2024-01-06T13:59:36;6.90;;;3.03;;
21258;SDS011;10787;53.364;-1.480;2024-01-06T14:02:25;4.72;;;2.35;;
21258;SDS011;10787;53.364;-1.480;2024-01-06T14:05:10;6.80;;;2.50;;
21258;SDS011;10787;53.364;-1.480;2024-01-06T14:07:54;7.63;;;2.30;;
21258;SDS011;10787;53.364;-1.480;2024-01-06T14:10:39;5.30;;;2.50;;
21258;SDS011;10787;53.364;-1.480;2024-01-06T14:13:23;5.85;;;2.42;;
21258;SDS011;10787;53.364;-1.480;2024-01-06T14:16:08;6.35;;;2.65;;
21258;SDS011;10787;53.364;-1.480;2024-01-06T14:18:52;6.18;;;2.80;;
21258;SDS011;10787;53.364;-1.480;2024-01-06T14:21:36;6.18;;;3.10;;
21258;SDS011;10787;53.364;-1.480;2024-01-06T14:24:20;4.77;;;2.63;;
21258;SDS011;10787;53.364;-1.480;2024-01-06T14:27:07;9.13;;;3.80;;
21258;SDS011;10787;53.364;-1.480;2024-01-06T14:29:51;16.00;;;10.07;;
21258;SDS011;10787;53.364;-1.480;2024-01-06T14:32:39;9.73;;;4.53;;
21258;SDS011;10787;53.364;-1.480;2024-01-06T14:35:24;10.20;;;6.07;;
21258;SDS011;10787;53.364;-1.480;2024-01-06T14:38:08;8.13;;;4.30;;
21258;SDS011;10787;53.364;-1.480;2024-01-06T14:40:53;9.30;;;3.90;;
21258;SDS011;10787;53.364;-1.480;2024-01-06T14:43:37;10.70;;;5.77;;
21258;SDS011;10787;53.364;-1.480;2024-01-06T14:46:21;11.53;;;6.00;;
21258;SDS011;10787;53.364;-1.480;2024-01-06T14:49:05;11.37;;;5.47;;
21258;SDS011;10787;53.364;-1.480;2024-01-06T14:51:49;7.53;;;3.70;;
21258;SDS011;10787;53.364;-1.480;2024-01-06T14:54:34;8.73;;;4.30;;
21258;SDS011;10787;53.364;-1.480;2024-01-06T14:57:19;7.27;;;3.30;;
21258;SDS011;10787;53.364;-1.480;2024-01-06T15:00:04;11.67;;;4.13;;
21258;SDS011;10787;53.364;-1.480;2024-01-06T15:02:49;7.43;;;3.57;;
21258;SDS011;10787;53.364;-1.480;2024-01-06T15:05:33;11.87;;;4.10;;
21258;SDS011;10787;53.364;-1.480;2024-01-06T15:08:18;8.53;;;3.93;;
21258;SDS011;10787;53.364;-1.480;2024-01-06T15:11:02;10.80;;;3.77;;
21258;SDS011;10787;53.364;-1.480;2024-01-06T15:13:46;7.97;;;3.60;;
21258;SDS011;10787;53.364;-1.480;2024-01-06T15:16:31;7.53;;;3.20;;
21258;SDS011;10787;53.364;-1.480;2024-01-06T15:19:15;7.67;;;3.57;;
21258;SDS011;10787;53.364;-1.480;2024-01-06T15:21:59;8.13;;;3.80;;
21258;SDS011;10787;53.364;-1.480;2024-01-06T15:24:44;11.93;;;4.50;;
21258;SDS011;10787;53.364;-1.480;2024-01-06T15:27:30;11.43;;;4.23;;
21258;SDS011;10787;53.364;-1.480;2024-01-06T15:30:14;8.63;;;3.57;;
21258;SDS011;10787;53.364;-1.480;2024-01-06T15:32:59;8.37;;;3.90;;
21258;SDS011;10787;53.364;-1.480;2024-01-06T15:35:44;8.67;;;3.87;;
21258;SDS011;10787;53.364;-1.480;2024-01-06T15:38:28;8.57;;;3.77;;
21258;SDS011;10787;53.364;-1.480;2024-01-06T15:41:12;11.77;;;3.63;;
21258;SDS011;10787;53.364;-1.480;2024-01-06T15:43:56;12.47;;;4.00;;
21258;SDS011;10787;53.364;-1.480;2024-01-06T15:46:40;8.87;;;4.20;;
21258;SDS011;10787;53.364;-1.480;2024-01-06T15:49:24;15.07;;;6.40;;
21258;SDS011;10787;53.364;-1.480;2024-01-06T15:52:10;20.87;;;9.87;;
21258;SDS011;10787;53.364;-1.480;2024-01-06T15:54:54;18.60;;;9.70;;
21258;SDS011;10787;53.364;-1.480;2024-01-06T15:57:40;19.37;;;9.10;;
21258;SDS011;10787;53.364;-1.480;2024-01-06T16:00:25;10.17;;;5.23;;
21258;SDS011;10787;53.364;-1.480;2024-01-06T16:03:10;12.40;;;4.90;;
21258;SDS011;10787;53.364;-1.480;2024-01-06T16:05:55;13.10;;;5.40;;
21258;SDS011;10787;53.364;-1.480;2024-01-06T16:08:39;8.87;;;4.60;;
21258;SDS011;10787;53.364;-1.480;2024-01-06T16:11:23;8.37;;;3.60;;
21258;SDS011;10787;53.364;-1.480;2024-01-06T16:14:07;7.83;;;3.70;;
21258;SDS011;10787;53.364;-1.480;2024-01-06T16:16:52;7.03;;;3.80;;
21258;SDS011;10787;53.364;-1.480;2024-01-06T16:19:37;10.53;;;5.10;;
21258;SDS011;10787;53.364;-1.480;2024-01-06T16:22:22;9.20;;;3.93;;